Time;durP1;ratioP1;P1;durP2;ratioP2;P2;SDS_P1;SDS_P2;PMS_P1;PMS_P2;Temp;Humidity;BMP_temperature;BMP_pressure;BME280_temperature;BME280_humidity;BME280_pressure;Samples;Min_cycle;Max_cycle;Signal;HPM_P1;HPM_P2
2021/07/13 00:00:08;;;;;;;6.40;5.65;;;;;;;;;;4975923;28;20035;-72
2021/07/13 00:02:34;;;;;;;23.77;6.60;;;;;;;;;;4976463;28;20037;-71
2021/07/13 00:05:00;;;;;;;6.88;6.13;;;;;;;;;;4975792;28;20070;-71
2021/07/13 00:07:26;;;;;;;8.95;6.43;;;;;;;;;;4975606;28;20511;-72
2021/07/13 00:09:52;;;;;;;7.65;6.40;;;;;;;;;;4976440;28;20073;-71
2021/07/13 00:12:18;;;;;;;6.47;5.82;;;;;;;;;;4975908;28;20034;-71
2021/07/13 00:14:44;;;;;;;6.65;6.05;;;;;;;;;;4975653;28;20488;-71
2021/07/13 00:17:10;;;;;;;6.55;5.95;;;;;;;;;;4975544;28;20469;-71
2021/07/13 00:19:36;;;;;;;8.93;6.28;;;;;;;;;;4975240;28;20034;-71
2021/07/13 00:22:03;;;;;;;6.97;6.32;;;;;;;;;;4975417;28;20517;-71
2021/07/13 00:24:29;;;;;;;6.80;6.20;;;;;;;;;;4975650;28;20027;-71
2021/07/13 00:26:55;;;;;;;8.65;6.97;;;;;;;;;;4975503;28;20027;-71
2021/07/13 00:29:21;;;;;;;7.57;6.38;;;;;;;;;;4975492;28;20113;-71
2021/07/13 00:31:47;;;;;;;7.78;6.47;;;;;;;;;;4975060;28;20093;-71
2021/07/13 00:34:13;;;;;;;7.95;7.15;;;;;;;;;;4975302;28;20038;-71
2021/07/13 00:36:39;;;;;;;7.75;7.00;;;;;;;;;;4974831;28;20477;-71
2021/07/13 00:39:05;;;;;;;10.40;6.68;;;;;;;;;;4975295;28;20023;-71
2021/07/13 00:41:35;;;;;;;7.75;7.05;;;;;;;;;;4974992;28;20054;-72
2021/07/13 00:44:01;;;;;;;7.05;6.35;;;;;;;;;;4975735;28;20038;-71
2021/07/13 00:46:27;;;;;;;10.98;6.85;;;;;;;;;;4975232;28;20458;-71
2021/07/13 00:48:53;;;;;;;11.38;8.48;;;;;;;;;;4974953;28;20038;-71
2021/07/13 00:51:19;;;;;;;8.07;7.10;;;;;;;;;;4974764;28;20027;-71
2021/07/13 00:53:45;;;;;;;11.95;6.97;;;;;;;;;;4974866;28;20034;-71
2021/07/13 00:56:11;;;;;;;8.00;7.03;;;;;;;;;;4975028;28;20492;-71
2021/07/13 00:58:37;;;;;;;8.05;7.25;;;;;;;;;;4975089;28;20169;-71
2021/07/13 01:01:04;;;;;;;9.43;8.50;;;;;;;;;;4974935;28;20032;-71
2021/07/13 01:03:30;;;;;;;9.82;8.48;;;;;;;;;;4974945;28;20078;-71
2021/07/13 01:05:56;;;;;;;11.32;8.18;;;;;;;;;;4974807;28;20023;-71
2021/07/13 01:08:29;;;;;;;9.25;7.57;;;;;;;;;;4975291;28;20158;-71
2021/07/13 01:11:12;;;;;;;9.43;8.52;;;;;;;;;;4975386;28;20078;-71
2021/07/13 01:13:41;;;;;;;9.77;8.00;;;;;;;;;;4975847;28;20027;-71
2021/07/13 01:16:27;;;;;;;9.75;7.70;;;;;;;;;;4973687;28;20039;-72
2021/07/13 01:18:56;;;;;;;13.38;8.50;;;;;;;;;;4974208;28;20037;-71
2021/07/13 01:21:42;;;;;;;8.13;7.43;;;;;;;;;;4974677;28;20122;-73
2021/07/13 01:24:30;;;;;;;8.98;8.18;;;;;;;;;;4973889;28;20097;-71
2021/07/13 01:27:04;;;;;;;7.95;7.25;;;;;;;;;;4973510;28;20018;-71
2021/07/13 01:29:30;;;;;;;11.02;7.35;;;;;;;;;;4974572;28;20037;-71
2021/07/13 01:31:57;;;;;;;13.40;8.63;;;;;;;;;;4974532;28;20027;-71
2021/07/13 01:34:25;;;;;;;11.95;8.50;;;;;;;;;;4974600;28;20027;-71
2021/07/13 01:36:51;;;;;;;8.73;7.82;;;;;;;;;;4974267;28;20373;-71
2021/07/13 01:39:18;;;;;;;9.73;8.05;;;;;;;;;;4974519;28;20026;-71
2021/07/13 01:41:46;;;;;;;15.15;7.68;;;;;;;;;;4974355;28;20027;-72
2021/07/13 01:44:12;;;;;;;12.85;8.57;;;;;;;;;;4974718;28;20031;-72
2021/07/13 01:46:38;;;;;;;8.75;7.95;;;;;;;;;;4974588;28;20067;-71
2021/07/13 01:49:04;;;;;;;9.38;8.48;;;;;;;;;;4974233;28;20496;-71
2021/07/13 01:51:30;;;;;;;8.43;7.63;;;;;;;;;;4974139;28;20481;-72
2021/07/13 01:53:57;;;;;;;10.55;9.40;;;;;;;;;;4974109;28;20376;-72
2021/07/13 01:56:23;;;;;;;9.50;8.60;;;;;;;;;;4975006;28;20174;-71
2021/07/13 01:58:49;;;;;;;14.75;9.20;;;;;;;;;;4974472;28;20023;-71
2021/07/13 02:01:19;;;;;;;11.02;8.55;;;;;;;;;;4974518;28;20030;-71
2021/07/13 02:03:45;;;;;;;11.50;8.98;;;;;;;;;;4974266;28;20041;-71
2021/07/13 02:06:11;;;;;;;13.05;11.02;;;;;;;;;;4974344;28;20368;-71
2021/07/13 02:08:38;;;;;;;9.68;8.70;;;;;;;;;;4973988;28;20034;-71
2021/07/13 02:11:05;;;;;;;9.93;8.57;;;;;;;;;;4974564;28;20065;-71
2021/07/13 02:13:32;;;;;;;10.95;9.50;;;;;;;;;;4974123;28;20023;-72
2021/07/13 02:15:59;;;;;;;10.90;9.90;;;;;;;;;;4974078;28;20026;-71
2021/07/13 02:18:25;;;;;;;10.35;9.27;;;;;;;;;;4974303;28;20027;-72
2021/07/13 02:20:51;;;;;;;10.70;9.60;;;;;;;;;;4974057;28;20023;-72
2021/07/13 02:23:17;;;;;;;11.90;10.30;;;;;;;;;;4973965;28;20062;-72
2021/07/13 02:25:43;;;;;;;10.50;9.48;;;;;;;;;;4974040;28;20030;-72
2021/07/13 02:28:17;;;;;;;9.65;8.85;;;;;;;;;;4978240;28;20027;-72
2021/07/13 02:30:44;;;;;;;9.30;8.43;;;;;;;;;;4977900;28;20158;-72
2021/07/13 02:33:12;;;;;;;10.95;8.57;;;;;;;;;;4977798;28;20037;-72
2021/07/13 02:35:39;;;;;;;9.43;8.57;;;;;;;;;;4976932;28;20034;-72
2021/07/13 02:38:05;;;;;;;11.02;8.48;;;;;;;;;;4977535;28;20046;-72
2021/07/13 02:40:31;;;;;;;10.75;9.82;;;;;;;;;;4977293;28;20413;-72
2021/07/13 02:42:57;;;;;;;9.30;8.50;;;;;;;;;;4977637;28;20033;-72
2021/07/13 02:45:23;;;;;;;9.40;8.40;;;;;;;;;;4977061;28;20578;-73
2021/07/13 02:47:49;;;;;;;9.32;8.43;;;;;;;;;;4977186;28;20469;-72
2021/07/13 02:50:16;;;;;;;9.80;8.93;;;;;;;;;;4977064;28;20033;-72
2021/07/13 02:52:42;;;;;;;9.23;8.32;;;;;;;;;;4977541;28;20366;-72
2021/07/13 02:55:10;;;;;;;10.27;9.30;;;;;;;;;;4977056;28;20405;-72
2021/07/13 02:57:37;;;;;;;10.93;9.95;;;;;;;;;;4977244;28;20117;-71
2021/07/13 03:00:03;;;;;;;9.07;8.18;;;;;;;;;;4977218;28;20431;-72
2021/07/13 03:02:29;;;;;;;9.52;8.68;;;;;;;;;;4977088;28;20034;-72
2021/07/13 03:04:57;;;;;;;8.57;7.80;;;;;;;;;;4976979;28;20027;-72
2021/07/13 03:10:26;;;;;;;10.57;9.52;;;;;;;;;;4977067;28;20093;-72
2021/07/13 03:12:53;;;;;;;11.60;10.63;;;;;;;;;;4976826;28;20043;-72
2021/07/13 03:15:21;;;;;;;10.73;9.73;;;;;;;;;;4977222;28;20445;-72
2021/07/13 03:17:47;;;;;;;11.70;10.45;;;;;;;;;;4976693;28;20093;-71
2021/07/13 03:20:13;;;;;;;11.13;10.07;;;;;;;;;;4977008;28;20038;-71
2021/07/13 03:22:40;;;;;;;14.02;9.82;;;;;;;;;;4976826;28;20030;-71
2021/07/13 03:25:07;;;;;;;11.88;9.43;;;;;;;;;;4976779;28;20038;-71
2021/07/13 03:27:33;;;;;;;10.52;9.45;;;;;;;;;;4976447;28;20035;-71
2021/07/13 03:30:00;;;;;;;10.70;9.68;;;;;;;;;;4976411;28;20037;-71
2021/07/13 03:32:26;;;;;;;10.60;9.60;;;;;;;;;;4976673;28;20038;-71
2021/07/13 03:34:52;;;;;;;10.02;9.10;;;;;;;;;;4977001;28;20027;-71
2021/07/13 03:37:18;;;;;;;10.85;9.85;;;;;;;;;;4976783;28;20473;-71
2021/07/13 03:39:44;;;;;;;14.05;10.10;;;;;;;;;;4992382;28;20374;-71
2021/07/13 03:42:10;;;;;;;9.20;8.48;;;;;;;;;;4972912;28;20047;-71
2021/07/13 03:44:37;;;;;;;9.82;8.93;;;;;;;;;;4976545;28;20058;-71
2021/07/13 03:47:03;;;;;;;9.35;8.65;;;;;;;;;;4976407;28;20037;-71
2021/07/13 03:49:29;;;;;;;8.95;8.18;;;;;;;;;;4976135;28;20031;-71
2021/07/13 03:51:55;;;;;;;9.63;8.82;;;;;;;;;;4976299;28;20027;-70
2021/07/13 03:54:21;;;;;;;9.65;8.65;;;;;;;;;;4975968;28;20055;-71
2021/07/13 03:56:47;;;;;;;10.07;9.20;;;;;;;;;;4976136;28;20027;-71
2021/07/13 03:59:13;;;;;;;9.88;8.93;;;;;;;;;;4976025;28;20515;-71
2021/07/13 04:01:39;;;;;;;8.73;7.93;;;;;;;;;;4975774;28;20506;-71
2021/07/13 04:04:06;;;;;;;12.35;9.27;;;;;;;;;;4976175;28;20027;-70
2021/07/13 04:06:32;;;;;;;9.30;8.20;;;;;;;;;;4975674;28;20481;-70
2021/07/13 04:08:58;;;;;;;9.65;8.75;;;;;;;;;;4975901;28;20122;-71
2021/07/13 04:11:24;;;;;;;10.10;8.23;;;;;;;;;;4971867;28;20031;-72
2021/07/13 04:13:50;;;;;;;7.53;6.82;;;;;;;;;;4975767;28;20030;-71
2021/07/13 04:16:16;;;;;;;8.40;7.70;;;;;;;;;;4975713;28;20034;-71
2021/07/13 04:18:42;;;;;;;9.00;8.10;;;;;;;;;;4975892;28;20121;-72
2021/07/13 04:21:08;;;;;;;9.60;8.70;;;;;;;;;;4974354;28;20050;-71
2021/07/13 04:23:35;;;;;;;8.20;7.50;;;;;;;;;;4975548;28;20031;-71
2021/07/13 04:26:01;;;;;;;8.48;7.68;;;;;;;;;;4975691;28;20069;-72
2021/07/13 04:28:29;;;;;;;10.93;7.45;;;;;;;;;;4975671;28;20030;-72
2021/07/13 04:30:56;;;;;;;9.20;8.30;;;;;;;;;;4974329;28;20027;-71
2021/07/13 04:33:22;;;;;;;9.40;7.90;;;;;;;;;;4975572;28;20046;-72
2021/07/13 04:35:48;;;;;;;8.65;7.88;;;;;;;;;;4975228;28;20026;-72
2021/07/13 04:38:14;;;;;;;8.27;7.57;;;;;;;;;;4974806;28;20043;-70
2021/07/13 04:40:40;;;;;;;16.30;10.55;;;;;;;;;;4973700;28;20456;-70
2021/07/13 04:43:06;;;;;;;8.60;7.72;;;;;;;;;;4973906;28;20030;-71
2021/07/13 04:45:32;;;;;;;8.85;8.05;;;;;;;;;;4973198;28;20025;-71
2021/07/13 04:47:58;;;;;;;8.02;7.32;;;;;;;;;;4973891;28;20034;-71
2021/07/13 04:50:24;;;;;;;8.40;7.70;;;;;;;;;;4973148;28;20544;-70
2021/07/13 04:52:50;;;;;;;8.95;8.13;;;;;;;;;;4973824;28;20026;-70
2021/07/13 04:55:17;;;;;;;11.43;8.20;;;;;;;;;;4974094;28;20055;-71
2021/07/13 04:57:44;;;;;;;8.48;7.70;;;;;;;;;;4973481;28;20038;-71
2021/07/13 05:00:11;;;;;;;8.35;7.60;;;;;;;;;;4973471;28;20477;-71
2021/07/13 05:02:37;;;;;;;12.40;8.23;;;;;;;;;;4973583;28;20027;-71
2021/07/13 05:05:03;;;;;;;8.43;7.72;;;;;;;;;;4973515;28;20114;-71
2021/07/13 05:07:29;;;;;;;11.00;7.60;;;;;;;;;;4973407;28;20023;-72
2021/07/13 05:09:55;;;;;;;8.20;7.38;;;;;;;;;;4973672;28;20019;-72
2021/07/13 05:12:21;;;;;;;7.50;6.90;;;;;;;;;;4973210;28;20114;-72
2021/07/13 05:14:47;;;;;;;9.73;7.60;;;;;;;;;;4973774;28;20385;-72
2021/07/13 05:17:13;;;;;;;7.10;6.50;;;;;;;;;;4973575;28;20064;-72
2021/07/13 05:19:42;;;;;;;7.93;7.22;;;;;;;;;;4973151;28;20059;-73
2021/07/13 05:22:09;;;;;;;8.70;7.50;;;;;;;;;;4973560;28;20076;-72
2021/07/13 05:24:35;;;;;;;9.10;7.53;;;;;;;;;;4973447;28;20065;-72
2021/07/13 05:27:02;;;;;;;8.27;7.57;;;;;;;;;;4973431;28;20571;-72
2021/07/13 05:29:28;;;;;;;13.55;7.95;;;;;;;;;;4973224;28;20508;-72
2021/07/13 05:31:54;;;;;;;7.50;6.80;;;;;;;;;;4973323;28;20049;-70
2021/07/13 05:34:20;;;;;;;9.13;8.30;;;;;;;;;;4973466;28;20085;-70
2021/07/13 05:36:46;;;;;;;8.07;7.38;;;;;;;;;;4973115;28;20027;-70
2021/07/13 05:39:12;;;;;;;8.23;7.53;;;;;;;;;;4973303;28;20031;-71
2021/07/13 05:41:38;;;;;;;8.13;7.53;;;;;;;;;;4972758;28;20050;-71
2021/07/13 05:44:06;;;;;;;8.30;7.55;;;;;;;;;;4972882;28;20384;-71
2021/07/13 05:46:32;;;;;;;9.70;8.90;;;;;;;;;;4973444;28;20027;-71
2021/07/13 05:48:58;;;;;;;8.38;7.63;;;;;;;;;;4973789;28;20426;-71
2021/07/13 05:51:24;;;;;;;9.25;8.48;;;;;;;;;;4973247;28;20097;-72
2021/07/13 05:53:50;;;;;;;10.50;9.52;;;;;;;;;;4972744;28;20027;-72
2021/07/13 05:56:16;;;;;;;15.52;8.60;;;;;;;;;;4972852;28;20030;-70
2021/07/13 05:58:42;;;;;;;9.65;8.60;;;;;;;;;;4972853;28;20524;-70
2021/07/13 06:01:09;;;;;;;10.60;8.52;;;;;;;;;;4974178;28;20026;-72
2021/07/13 06:03:35;;;;;;;11.18;10.05;;;;;;;;;;4976780;28;20106;-71
2021/07/13 06:06:01;;;;;;;16.95;13.65;;;;;;;;;;4977754;28;20069;-70
2021/07/13 06:08:27;;;;;;;12.45;10.55;;;;;;;;;;4978409;28;20031;-72
2021/07/13 06:10:53;;;;;;;9.75;8.95;;;;;;;;;;4978083;28;20062;-73
2021/07/13 06:13:19;;;;;;;10.00;9.07;;;;;;;;;;4977484;28;20070;-73
2021/07/13 06:15:46;;;;;;;8.88;8.07;;;;;;;;;;4976685;28;20027;-72
2021/07/13 06:18:13;;;;;;;10.80;8.38;;;;;;;;;;4977139;28;20445;-71
2021/07/13 06:20:39;;;;;;;11.95;8.75;;;;;;;;;;4978157;28;20034;-72
2021/07/13 06:23:05;;;;;;;8.13;7.40;;;;;;;;;;4977873;28;20033;-72
2021/07/13 06:25:31;;;;;;;9.88;8.32;;;;;;;;;;4977531;28;20046;-72
2021/07/13 06:27:57;;;;;;;10.40;8.55;;;;;;;;;;4977863;28;20404;-73
2021/07/13 06:30:23;;;;;;;11.38;8.70;;;;;;;;;;4977711;28;20385;-72
2021/07/13 06:32:49;;;;;;;10.18;8.82;;;;;;;;;;4977821;28;20031;-72
2021/07/13 06:35:15;;;;;;;9.60;8.60;;;;;;;;;;4977908;28;20030;-72
2021/07/13 06:37:43;;;;;;;9.23;7.75;;;;;;;;;;4977307;28;20042;-72
2021/07/13 06:40:09;;;;;;;10.82;9.07;;;;;;;;;;4977454;28;20022;-72
2021/07/13 06:42:35;;;;;;;11.60;9.43;;;;;;;;;;4977467;28;20049;-72
2021/07/13 06:45:01;;;;;;;10.40;8.65;;;;;;;;;;4977461;28;20027;-72
2021/07/13 06:47:27;;;;;;;12.07;8.65;;;;;;;;;;4977439;28;20491;-72
2021/07/13 06:49:53;;;;;;;11.18;9.35;;;;;;;;;;4977182;28;20473;-72
2021/07/13 06:52:19;;;;;;;9.65;8.27;;;;;;;;;;4977499;28;20034;-72
2021/07/13 06:54:45;;;;;;;9.15;8.15;;;;;;;;;;4977452;28;20154;-72
2021/07/13 06:57:12;;;;;;;9.35;8.45;;;;;;;;;;4977529;28;20026;-71
2021/07/13 06:59:38;;;;;;;8.55;7.60;;;;;;;;;;4977466;28;20058;-72
2021/07/13 07:02:04;;;;;;;11.13;8.10;;;;;;;;;;4977623;28;20559;-71
2021/07/13 07:04:30;;;;;;;10.25;8.25;;;;;;;;;;4977040;28;20031;-72
2021/07/13 07:06:56;;;;;;;25.40;8.70;;;;;;;;;;4977288;28;20031;-72
2021/07/13 07:09:22;;;;;;;9.38;8.55;;;;;;;;;;4976857;28;20488;-72
2021/07/13 07:11:48;;;;;;;13.63;8.35;;;;;;;;;;4975919;28;20074;-72
2021/07/13 07:14:14;;;;;;;8.95;7.65;;;;;;;;;;4977022;28;20031;-72
2021/07/13 07:16:40;;;;;;;17.67;7.90;;;;;;;;;;4976625;28;20062;-73
2021/07/13 07:19:06;;;;;;;8.50;7.55;;;;;;;;;;4977826;28;20030;-73
2021/07/13 07:21:32;;;;;;;12.63;8.52;;;;;;;;;;4976785;28;20026;-72
2021/07/13 07:23:58;;;;;;;10.35;8.63;;;;;;;;;;4977117;28;20409;-74
2021/07/13 07:26:24;;;;;;;10.48;7.32;;;;;;;;;;4976280;28;20066;-72
2021/07/13 07:28:50;;;;;;;14.52;7.72;;;;;;;;;;4977034;28;20033;-73
2021/07/13 07:31:18;;;;;;;7.90;7.20;;;;;;;;;;4976194;28;20089;-72
2021/07/13 07:33:44;;;;;;;9.60;7.75;;;;;;;;;;4976426;28;20078;-72
2021/07/13 07:36:10;;;;;;;9.63;8.63;;;;;;;;;;4975676;28;20030;-73
2021/07/13 07:38:36;;;;;;;8.07;7.30;;;;;;;;;;4975018;28;20378;-75
2021/07/13 07:41:02;;;;;;;7.95;6.90;;;;;;;;;;4974815;28;20070;-73
2021/07/13 07:43:28;;;;;;;8.80;7.90;;;;;;;;;;4976474;28;20027;-74
2021/07/13 07:45:55;;;;;;;8.77;8.07;;;;;;;;;;4976565;28;20038;-72
2021/07/13 07:48:21;;;;;;;8.52;6.97;;;;;;;;;;4977395;28;20512;-77
2021/07/13 07:50:47;;;;;;;22.60;7.82;;;;;;;;;;4976771;28;20101;-73
2021/07/13 07:53:13;;;;;;;10.85;7.78;;;;;;;;;;4976850;28;20031;-72
2021/07/13 07:55:39;;;;;;;8.30;7.35;;;;;;;;;;4976181;28;20177;-76
2021/07/13 07:58:05;;;;;;;11.55;7.45;;;;;;;;;;4975641;28;20031;-73
2021/07/13 08:00:31;;;;;;;11.20;8.48;;;;;;;;;;4976179;28;20064;-71
2021/07/13 08:02:57;;;;;;;8.65;7.85;;;;;;;;;;4975532;28;20023;-73
2021/07/13 08:05:26;;;;;;;15.93;7.05;;;;;;;;;;4975508;28;20086;-72
2021/07/13 08:07:52;;;;;;;8.13;7.13;;;;;;;;;;4976014;28;20026;-72
2021/07/13 08:10:18;;;;;;;28.27;7.80;;;;;;;;;;4975095;28;20058;-71
2021/07/13 08:12:44;;;;;;;13.23;7.15;;;;;;;;;;4975809;28;20491;-72
2021/07/13 08:15:11;;;;;;;15.75;9.13;;;;;;;;;;4975161;28;20073;-74
2021/07/13 08:17:37;;;;;;;13.38;9.40;;;;;;;;;;4974019;28;20062;-72
2021/07/13 08:20:04;;;;;;;21.52;9.73;;;;;;;;;;4975437;28;20464;-74
2021/07/13 08:22:32;;;;;;;15.32;9.48;;;;;;;;;;4975416;28;20090;-73
2021/07/13 08:24:59;;;;;;;17.63;9.05;;;;;;;;;;4975286;28;20026;-73
2021/07/13 08:27:25;;;;;;;22.80;9.50;;;;;;;;;;4975418;28;20121;-74
2021/07/13 08:29:51;;;;;;;15.90;9.63;;;;;;;;;;4975249;28;20448;-74
2021/07/13 08:32:17;;;;;;;23.50;9.95;;;;;;;;;;4973642;28;20027;-74
2021/07/13 08:34:43;;;;;;;24.20;8.70;;;;;;;;;;4975427;28;20109;-73
2021/07/13 08:37:09;;;;;;;36.92;10.45;;;;;;;;;;4975099;28;20035;-74
2021/07/13 08:39:35;;;;;;;22.88;9.98;;;;;;;;;;4974688;28;20034;-73
2021/07/13 08:42:03;;;;;;;23.30;9.60;;;;;;;;;;4975884;28;20023;-74
2021/07/13 08:44:29;;;;;;;20.48;9.18;;;;;;;;;;4975751;28;20030;-74
2021/07/13 08:46:55;;;;;;;17.90;9.73;;;;;;;;;;4975457;28;20362;-74
2021/07/13 08:49:21;;;;;;;10.50;9.00;;;;;;;;;;4974743;28;20019;-74
2021/07/13 08:51:48;;;;;;;11.57;7.93;;;;;;;;;;4974657;28;20038;-75
2021/07/13 08:54:14;;;;;;;20.38;10.02;;;;;;;;;;4974397;28;20394;-74
2021/07/13 08:56:40;;;;;;;10.10;8.82;;;;;;;;;;4974927;28;20049;-73
2021/07/13 08:59:06;;;;;;;15.52;9.23;;;;;;;;;;4975019;28;20037;-73
2021/07/13 09:01:32;;;;;;;13.40;8.20;;;;;;;;;;4974610;28;20469;-73
2021/07/13 09:04:01;;;;;;;13.68;8.48;;;;;;;;;;4974781;28;20031;-74
2021/07/13 09:06:27;;;;;;;13.07;7.10;;;;;;;;;;4975016;28;20027;-73
2021/07/13 09:08:53;;;;;;;14.35;8.85;;;;;;;;;;4974868;28;20031;-73
2021/07/13 09:11:21;;;;;;;17.67;9.18;;;;;;;;;;4974893;28;20023;-73
2021/07/13 09:13:48;;;;;;;13.65;8.80;;;;;;;;;;4974734;28;20026;-74
2021/07/13 09:16:15;;;;;;;13.27;8.65;;;;;;;;;;4974672;28;20125;-74
2021/07/13 09:18:50;;;;;;;13.75;9.32;;;;;;;;;;4975047;28;20039;-74
2021/07/13 09:21:18;;;;;;;17.33;9.82;;;;;;;;;;4974503;28;20154;-73
2021/07/13 09:24:04;;;;;;;15.85;9.70;;;;;;;;;;4974527;28;20034;-74
2021/07/13 09:26:38;;;;;;;13.95;10.43;;;;;;;;;;4974116;28;20031;-74
2021/07/13 09:29:04;;;;;;;12.98;10.48;;;;;;;;;;4974906;28;20109;-73
2021/07/13 09:31:30;;;;;;;13.70;11.13;;;;;;;;;;4974392;28;20034;-73
2021/07/13 09:33:56;;;;;;;16.02;10.35;;;;;;;;;;4974208;28;20491;-73
2021/07/13 09:36:22;;;;;;;17.77;11.27;;;;;;;;;;4975366;28;20457;-73
2021/07/13 09:38:53;;;;;;;13.93;12.52;;;;;;;;;;4978459;28;20433;-73
2021/07/13 09:41:19;;;;;;;14.98;12.93;;;;;;;;;;4978690;28;20142;-74
2021/07/13 09:44:00;;;;;;;14.32;12.82;;;;;;;;;;4978174;28;20058;-74
2021/07/13 09:46:34;;;;;;;13.75;12.45;;;;;;;;;;4978176;28;20040;-73
2021/07/13 09:49:20;;;;;;;16.80;15.00;;;;;;;;;;4978992;28;20033;-74
2021/07/13 09:51:55;;;;;;;37.70;19.98;;;;;;;;;;5004272;28;20354;-73
2021/07/13 09:54:41;;;;;;;26.52;15.95;;;;;;;;;;4978373;28;20049;-73
2021/07/13 09:57:22;;;;;;;22.52;15.43;;;;;;;;;;5004276;28;20030;-73
2021/07/13 09:59:48;;;;;;;;;;;;;;;;;;4979244;28;20076;-74
2021/07/13 10:02:16;;;;;;;35.63;17.05;;;;;;;;;;4978149;28;19910;-73
2021/07/13 10:04:42;;;;;;;34.08;17.33;;;;;;;;;;4978306;28;20393;-74
2021/07/13 10:07:09;;;;;;;32.03;18.63;;;;;;;;;;4977799;28;20034;-73
2021/07/13 10:09:37;;;;;;;31.05;19.20;;;;;;;;;;4977915;28;20158;-73
2021/07/13 10:12:07;;;;;;;31.52;19.20;;;;;;;;;;4978187;28;20137;-73
2021/07/13 10:14:33;;;;;;;32.60;18.35;;;;;;;;;;4978105;28;20022;-73
2021/07/13 10:17:00;;;;;;;29.58;18.42;;;;;;;;;;4978306;28;20480;-73
2021/07/13 10:19:26;;;;;;;28.23;16.85;;;;;;;;;;4977494;28;20034;-74
2021/07/13 10:21:53;;;;;;;28.23;17.00;;;;;;;;;;4977749;28;20078;-74
2021/07/13 10:24:22;;;;;;;26.23;17.17;;;;;;;;;;4978178;28;20461;-73
2021/07/13 10:26:49;;;;;;;25.55;16.90;;;;;;;;;;4977751;28;20027;-73
2021/07/13 10:29:36;;;;;;;24.73;15.35;;;;;;;;;;4977864;28;20034;-73
2021/07/13 10:32:04;;;;;;;22.80;14.93;;;;;;;;;;5003620;28;20062;-73
2021/07/13 10:34:48;;;;;;;23.05;16.33;;;;;;;;;;4977292;28;20019;-73
2021/07/13 10:37:34;;;;;;;21.73;15.55;;;;;;;;;;4977588;28;20046;-72
2021/07/13 10:40:10;;;;;;;19.17;15.05;;;;;;;;;;5003876;28;20461;-73
2021/07/13 10:42:47;;;;;;;24.38;17.10;;;;;;;;;;4977749;28;20035;-73
2021/07/13 10:45:16;;;;;;;21.90;16.35;;;;;;;;;;4977241;28;20503;-73
2021/07/13 10:48:02;;;;;;;20.88;15.05;;;;;;;;;;4977208;28;20115;-73
2021/07/13 10:50:35;;;;;;;20.25;13.95;;;;;;;;;;5003712;28;20019;-73
2021/07/13 10:53:22;;;;;;;19.70;14.93;;;;;;;;;;4977143;28;20539;-73
2021/07/13 10:55:52;;;;;;;22.63;14.43;;;;;;;;;;5002636;28;20146;-73
2021/07/13 10:58:20;;;;;;;20.98;15.32;;;;;;;;;;4977430;28;20042;-73
2021/07/13 11:01:06;;;;;;;21.42;14.48;;;;;;;;;;4977374;28;20027;-73
2021/07/13 11:03:50;;;;;;;21.50;13.82;;;;;;;;;;5002927;28;20110;-74
2021/07/13 11:06:18;;;;;;;18.38;14.98;;;;;;;;;;4977543;28;20062;-73
2021/07/13 11:08:52;;;;;;;24.73;13.48;;;;;;;;;;4977097;28;20027;-73
2021/07/13 11:11:34;;;;;;;17.55;14.60;;;;;;;;;;4977225;28;20378;-73
2021/07/13 11:14:02;;;;;;;;;;;;;;;;;;4977224;28;20023;-73
2021/07/13 11:16:29;;;;;;;17.17;11.95;;;;;;;;;;4976729;28;19910;-73
2021/07/13 11:18:55;;;;;;;18.27;12.88;;;;;;;;;;4976799;28;20035;-73
2021/07/13 11:21:29;;;;;;;19.38;12.82;;;;;;;;;;4977055;28;20034;-73
2021/07/13 11:23:57;;;;;;;16.08;12.63;;;;;;;;;;4976747;28;20433;-73
2021/07/13 11:26:24;;;;;;;14.73;11.88;;;;;;;;;;4976878;28;20023;-73
2021/07/13 11:28:52;;;;;;;13.60;11.65;;;;;;;;;;4976579;28;20090;-73
2021/07/13 11:31:26;;;;;;;15.20;11.25;;;;;;;;;;4976732;28;20086;-73
2021/07/13 11:33:56;;;;;;;16.35;13.57;;;;;;;;;;4976977;28;20033;-73
2021/07/13 11:36:26;;;;;;;16.25;11.75;;;;;;;;;;4976454;28;20046;-73
2021/07/13 11:38:52;;;;;;;15.98;11.65;;;;;;;;;;4976206;28;20504;-73
2021/07/13 11:41:19;;;;;;;13.98;11.57;;;;;;;;;;4976463;28;20034;-73
2021/07/13 11:43:47;;;;;;;11.30;10.35;;;;;;;;;;4975862;28;20038;-73
2021/07/13 11:46:16;;;;;;;12.73;11.50;;;;;;;;;;4976966;28;20033;-73
2021/07/13 11:48:43;;;;;;;15.20;11.73;;;;;;;;;;4976611;28;20122;-73
2021/07/13 11:51:09;;;;;;;16.33;11.40;;;;;;;;;;4976234;28;20023;-73
2021/07/13 11:53:35;;;;;;;11.13;9.73;;;;;;;;;;4975689;28;20387;-74
2021/07/13 11:56:02;;;;;;;16.17;11.35;;;;;;;;;;4975838;28;20059;-73
2021/07/13 11:58:28;;;;;;;13.27;11.27;;;;;;;;;;4976388;28;20038;-73
2021/07/13 12:00:55;;;;;;;14.32;11.27;;;;;;;;;;4975926;28;20027;-73
2021/07/13 12:03:28;;;;;;;11.65;10.05;;;;;;;;;;4976098;28;20026;-73
2021/07/13 12:06:12;;;;;;;13.38;11.73;;;;;;;;;;4976050;28;20473;-73
2021/07/13 12:08:38;;;;;;;12.65;11.32;;;;;;;;;;4975782;28;20031;-73
2021/07/13 12:11:05;;;;;;;13.75;10.93;;;;;;;;;;4975926;28;20023;-73
2021/07/13 12:13:31;;;;;;;12.77;11.05;;;;;;;;;;4975756;28;20031;-73
2021/07/13 12:16:17;;;;;;;13.35;10.77;;;;;;;;;;4976296;28;20023;-73
2021/07/13 12:18:43;;;;;;;12.57;10.90;;;;;;;;;;5001677;28;20070;-72
2021/07/13 12:21:12;;;;;;;12.23;10.65;;;;;;;;;;4975297;28;20065;-73
2021/07/13 12:23:39;;;;;;;14.77;11.25;;;;;;;;;;4975441;28;20058;-74
2021/07/13 12:26:25;;;;;;;12.27;10.32;;;;;;;;;;4975951;28;20023;-74
2021/07/13 12:29:11;;;;;;;10.75;9.68;;;;;;;;;;5001781;28;20026;-73
2021/07/13 12:31:50;;;;;;;11.80;10.70;;;;;;;;;;4973116;28;20484;-73
2021/07/13 12:34:18;;;;;;;11.65;10.45;;;;;;;;;;4976333;28;20023;-73
2021/07/13 12:36:44;;;;;;;12.88;11.45;;;;;;;;;;4975465;28;20035;-74
2021/07/13 12:39:25;;;;;;;12.38;10.13;;;;;;;;;;4974530;28;20030;-71
2021/07/13 12:42:09;;;;;;;17.40;11.32;;;;;;;;;;4975244;28;20033;-72
2021/07/13 12:44:37;;;;;;;15.60;11.35;;;;;;;;;;4975124;28;20039;-70
2021/07/13 12:47:19;;;;;;;11.23;9.98;;;;;;;;;;4974829;28;20031;-72
2021/07/13 12:49:58;;;;;;;14.20;11.23;;;;;;;;;;4974479;28;20105;-72
2021/07/13 12:52:29;;;;;;;15.48;11.75;;;;;;;;;;4974834;28;20041;-75
2021/07/13 12:54:57;;;;;;;11.40;10.35;;;;;;;;;;4974774;28;20090;-73
2021/07/13 12:57:31;;;;;;;16.80;10.65;;;;;;;;;;4973429;28;20074;-75
2021/07/13 12:59:57;;;;;;;11.73;10.40;;;;;;;;;;4974221;28;20030;-73
2021/07/13 13:02:23;;;;;;;14.93;11.00;;;;;;;;;;4973920;28;20114;-72
2021/07/13 13:04:49;;;;;;;14.40;11.43;;;;;;;;;;4974284;28;20038;-73
2021/07/13 13:07:22;;;;;;;12.27;9.70;;;;;;;;;;4974491;28;20034;-72
2021/07/13 13:09:48;;;;;;;10.45;9.43;;;;;;;;;;4974694;28;20082;-72
2021/07/13 13:12:16;;;;;;;10.57;9.48;;;;;;;;;;4973410;28;20437;-71
2021/07/13 13:14:43;;;;;;;11.93;9.57;;;;;;;;;;4974792;28;20342;-71
2021/07/13 13:17:12;;;;;;;13.73;9.85;;;;;;;;;;4974892;28;20062;-71
2021/07/13 13:19:38;;;;;;;10.68;9.57;;;;;;;;;;4974356;28;20026;-71
2021/07/13 13:22:04;;;;;;;12.32;10.40;;;;;;;;;;4973624;28;20559;-71
2021/07/13 13:24:30;;;;;;;10.77;9.70;;;;;;;;;;4973850;28;20045;-71
2021/07/13 13:26:56;;;;;;;10.95;9.30;;;;;;;;;;4974385;28;20026;-71
2021/07/13 13:29:22;;;;;;;10.27;9.32;;;;;;;;;;4974803;28;20034;-71
2021/07/13 13:31:48;;;;;;;13.18;10.20;;;;;;;;;;4973924;28;20023;-72
2021/07/13 13:34:14;;;;;;;12.73;10.10;;;;;;;;;;4974449;28;20043;-71
2021/07/13 13:36:42;;;;;;;11.63;10.52;;;;;;;;;;4974383;28;20381;-71
2021/07/13 13:39:15;;;;;;;12.73;11.15;;;;;;;;;;4974225;28;20027;-72
2021/07/13 13:41:42;;;;;;;11.57;9.00;;;;;;;;;;4973835;28;20019;-72
2021/07/13 13:44:08;;;;;;;10.27;9.30;;;;;;;;;;4973864;28;20086;-71
2021/07/13 13:46:34;;;;;;;12.70;9.73;;;;;;;;;;4974299;28;20023;-71
2021/07/13 13:49:00;;;;;;;10.23;9.23;;;;;;;;;;4973975;28;20023;-72
2021/07/13 13:51:26;;;;;;;12.82;9.60;;;;;;;;;;4973385;28;20519;-72
2021/07/13 13:53:52;;;;;;;12.57;8.85;;;;;;;;;;4974385;28;20049;-70
2021/07/13 13:56:19;;;;;;;13.20;9.85;;;;;;;;;;4974217;28;20077;-71
2021/07/13 13:58:45;;;;;;;11.63;9.80;;;;;;;;;;4974210;28;20506;-70
2021/07/13 14:01:13;;;;;;;10.93;9.82;;;;;;;;;;4974383;28;20023;-71
2021/07/13 14:03:39;;;;;;;13.40;9.07;;;;;;;;;;4973429;28;20023;-72
2021/07/13 14:06:05;;;;;;;11.55;7.85;;;;;;;;;;4974266;28;20495;-73
2021/07/13 14:08:32;;;;;;;14.07;9.02;;;;;;;;;;4974132;28;20030;-74
2021/07/13 14:10:58;;;;;;;10.48;8.73;;;;;;;;;;4974261;28;20034;-72
2021/07/13 14:13:24;;;;;;;9.50;8.63;;;;;;;;;;4973614;28;20532;-74
2021/07/13 14:15:50;;;;;;;12.38;9.25;;;;;;;;;;4974416;28;20031;-72
2021/07/13 14:18:16;;;;;;;10.90;9.73;;;;;;;;;;4973350;28;20033;-73
2021/07/13 14:20:42;;;;;;;10.43;9.30;;;;;;;;;;4973992;28;20547;-72
2021/07/13 14:23:08;;;;;;;10.77;9.65;;;;;;;;;;4976143;28;20053;-72
2021/07/13 14:25:35;;;;;;;12.00;10.68;;;;;;;;;;4977325;28;20027;-72
2021/07/13 14:28:01;;;;;;;17.27;12.55;;;;;;;;;;4977517;28;20432;-72
2021/07/13 14:30:27;;;;;;;12.93;11.57;;;;;;;;;;4977403;28;20029;-71
2021/07/13 14:32:53;;;;;;;13.25;11.50;;;;;;;;;;4976823;28;20078;-72
2021/07/13 14:35:19;;;;;;;13.23;11.63;;;;;;;;;;4977450;28;20031;-71
2021/07/13 14:37:45;;;;;;;12.63;10.55;;;;;;;;;;4977021;28;20551;-72